sensor_id;sensor_type;location;lat;lon;timestamp;P1;durP1;ratioP1;P2;durP2;ratioP2
55350;SDS011;62194;49.480;10.986;2023-09-18T00:00:03;8.33;;;7.03;;
55350;SDS011;62194;49.480;10.986;2023-09-18T00:00:10;8.60;;;7.10;;
55350;SDS011;62194;49.480;10.986;2023-09-18T00:00:17;8.34;;;6.82;;
55350;SDS011;62194;49.480;10.986;2023-09-18T00:00:22;8.23;;;6.90;;
55350;SDS011;62194;49.480;10.986;2023-09-18T00:00:27;8.00;;;6.83;;
55350;SDS011;62194;49.480;10.986;2023-09-18T00:00:33;7.40;;;6.70;;
55350;SDS011;62194;49.480;10.986;2023-09-18T00:00:40;7.30;;;6.60;;
55350;SDS011;62194;49.480;10.986;2023-09-18T00:00:47;7.54;;;6.76;;
55350;SDS011;62194;49.480;10.986;2023-09-18T00:00:55;7.50;;;6.70;;
55350;SDS011;62194;49.480;10.986;2023-09-18T00:01:03;7.93;;;6.70;;
55350;SDS011;62194;49.480;10.986;2023-09-18T00:01:10;8.00;;;6.80;;
55350;SDS011;62194;49.480;10.986;2023-09-18T00:01:15;7.90;;;6.90;;
55350;SDS011;62194;49.480;10.986;2023-09-18T00:01:20;8.37;;;6.80;;
55350;SDS011;62194;49.480;10.986;2023-09-18T00:01:26;8.17;;;6.87;;
55350;SDS011;62194;49.480;10.986;2023-09-18T00:01:31;7.77;;;6.87;;
55350;SDS011;62194;49.480;10.986;2023-09-18T00:01:36;8.00;;;6.83;;
55350;SDS011;62194;49.480;10.986;2023-09-18T00:01:41;8.17;;;6.87;;
55350;SDS011;62194;49.480;10.986;2023-09-18T00:01:46;7.95;;;6.72;;
55350;SDS011;62194;49.480;10.986;2023-09-18T00:01:51;7.67;;;6.80;;
55350;SDS011;62194;49.480;10.986;2023-09-18T00:01:56;7.93;;;6.83;;
55350;SDS011;62194;49.480;10.986;2023-09-18T00:02:02;8.57;;;6.93;;
55350;SDS011;62194;49.480;10.986;2023-09-18T00:02:07;8.30;;;6.90;;
55350;SDS011;62194;49.480;10.986;2023-09-18T00:02:12;7.97;;;6.80;;
55350;SDS011;62194;49.480;10.986;2023-09-18T00:02:17;7.68;;;6.80;;
55350;SDS011;62194;49.480;10.986;2023-09-18T00:02:22;7.60;;;6.77;;
55350;SDS011;62194;49.480;10.986;2023-09-18T00:02:28;7.45;;;6.63;;
55350;SDS011;62194;49.480;10.986;2023-09-18T00:02:36;7.27;;;6.57;;
55350;SDS011;62194;49.480;10.986;2023-09-18T00:02:41;7.10;;;6.40;;
55350;SDS011;62194;49.480;10.986;2023-09-18T00:02:49;7.05;;;6.35;;
55350;SDS011;62194;49.480;10.986;2023-09-18T00:02:54;6.85;;;6.15;;
55350;SDS011;62194;49.480;10.986;2023-09-18T00:02:59;6.90;;;6.20;;
55350;SDS011;62194;49.480;10.986;2023-09-18T00:03:08;6.85;;;6.20;;
55350;SDS011;62194;49.480;10.986;2023-09-18T00:03:13;6.93;;;6.27;;
55350;SDS011;62194;49.480;10.986;2023-09-18T00:03:18;7.03;;;6.33;;
55350;SDS011;62194;49.480;10.986;2023-09-18T00:03:25;7.07;;;6.37;;
55350;SDS011;62194;49.480;10.986;2023-09-18T00:03:30;7.05;;;6.35;;
55350;SDS011;62194;49.480;10.986;2023-09-18T00:03:35;7.13;;;6.43;;
55350;SDS011;62194;49.480;10.986;2023-09-18T00:03:40;7.07;;;6.37;;
55350;SDS011;62194;49.480;10.986;2023-09-18T00:03:45;7.37;;;6.60;;
55350;SDS011;62194;49.480;10.986;2023-09-18T00:03:51;7.13;;;6.43;;
55350;SDS011;62194;49.480;10.986;2023-09-18T00:03:56;7.17;;;6.47;;
55350;SDS011;62194;49.480;10.986;2023-09-18T00:04:03;7.03;;;6.33;;
55350;SDS011;62194;49.480;10.986;2023-09-18T00:04:09;7.03;;;6.32;;
55350;SDS011;62194;49.480;10.986;2023-09-18T00:04:14;6.80;;;6.20;;
55350;SDS011;62194;49.480;10.986;2023-09-18T00:04:19;6.87;;;6.27;;
55350;SDS011;62194;49.480;10.986;2023-09-18T00:04:24;6.93;;;6.30;;
55350;SDS011;62194;49.480;10.986;2023-09-18T00:04:29;7.13;;;6.43;;
55350;SDS011;62194;49.480;10.986;2023-09-18T00:04:35;7.23;;;6.53;;
55350;SDS011;62194;49.480;10.986;2023-09-18T00:04:40;7.23;;;6.53;;
55350;SDS011;62194;49.480;10.986;2023-09-18T00:04:45;7.43;;;6.63;;
55350;SDS011;62194;49.480;10.986;2023-09-18T00:04:50;7.60;;;6.78;;
55350;SDS011;62194;49.480;10.986;2023-09-18T00:04:55;8.10;;;7.00;;
55350;SDS011;62194;49.480;10.986;2023-09-18T00:05:00;7.93;;;7.07;;
55350;SDS011;62194;49.480;10.986;2023-09-18T00:05:06;8.33;;;7.13;;
55350;SDS011;62194;49.480;10.986;2023-09-18T00:05:11;8.82;;;7.32;;
55350;SDS011;62194;49.480;10.986;2023-09-18T00:05:20;8.03;;;7.20;;
55350;SDS011;62194;49.480;10.986;2023-09-18T00:05:25;7.70;;;6.90;;
55350;SDS011;62194;49.480;10.986;2023-09-18T00:05:31;7.63;;;6.85;;
55350;SDS011;62194;49.480;10.986;2023-09-18T00:05:37;7.53;;;6.77;;
55350;SDS011;62194;49.480;10.986;2023-09-18T00:05:42;7.73;;;6.90;;
55350;SDS011;62194;49.480;10.986;2023-09-18T00:05:47;7.88;;;7.05;;
55350;SDS011;62194;49.480;10.986;2023-09-18T00:05:55;8.10;;;7.13;;
55350;SDS011;62194;49.480;10.986;2023-09-18T00:06:00;8.53;;;7.20;;
55350;SDS011;62194;49.480;10.986;2023-09-18T00:06:05;8.67;;;7.27;;
55350;SDS011;62194;49.480;10.986;2023-09-18T00:06:11;8.00;;;7.20;;
55350;SDS011;62194;49.480;10.986;2023-09-18T00:06:16;8.10;;;7.23;;
55350;SDS011;62194;49.480;10.986;2023-09-18T00:06:21;8.30;;;7.40;;
55350;SDS011;62194;49.480;10.986;2023-09-18T00:06:28;7.87;;;7.07;;
55350;SDS011;62194;49.480;10.986;2023-09-18T00:06:33;7.83;;;7.03;;
55350;SDS011;62194;49.480;10.986;2023-09-18T00:06:38;7.70;;;6.90;;
55350;SDS011;62194;49.480;10.986;2023-09-18T00:06:44;7.55;;;6.80;;
55350;SDS011;62194;49.480;10.986;2023-09-18T00:06:49;7.57;;;6.87;;
55350;SDS011;62194;49.480;10.986;2023-09-18T00:06:54;7.57;;;6.87;;
55350;SDS011;62194;49.480;10.986;2023-09-18T00:06:59;7.50;;;6.80;;
55350;SDS011;62194;49.480;10.986;2023-09-18T00:07:04;7.60;;;6.90;;
55350;SDS011;62194;49.480;10.986;2023-09-18T00:07:10;7.60;;;6.90;;
55350;SDS011;62194;49.480;10.986;2023-09-18T00:07:16;7.53;;;6.83;;
55350;SDS011;62194;49.480;10.986;2023-09-18T00:07:22;7.30;;;6.60;;
55350;SDS011;62194;49.480;10.986;2023-09-18T00:07:27;7.43;;;6.73;;
55350;SDS011;62194;49.480;10.986;2023-09-18T00:07:32;7.50;;;6.80;;
55350;SDS011;62194;49.480;10.986;2023-09-18T00:07:37;7.37;;;6.67;;
55350;SDS011;62194;49.480;10.986;2023-09-18T00:07:42;7.30;;;6.60;;
55350;SDS011;62194;49.480;10.986;2023-09-18T00:07:48;7.32;;;6.63;;
55350;SDS011;62194;49.480;10.986;2023-09-18T00:07:53;7.60;;;6.87;;
55350;SDS011;62194;49.480;10.986;2023-09-18T00:07:58;7.57;;;6.83;;
55350;SDS011;62194;49.480;10.986;2023-09-18T00:08:03;7.67;;;6.90;;
55350;SDS011;62194;49.480;10.986;2023-09-18T00:08:09;7.70;;;7.00;;
55350;SDS011;62194;49.480;10.986;2023-09-18T00:08:14;7.97;;;7.17;;
55350;SDS011;62194;49.480;10.986;2023-09-18T00:08:19;7.90;;;7.07;;
55350;SDS011;62194;49.480;10.986;2023-09-18T00:08:24;8.07;;;6.93;;
55350;SDS011;62194;49.480;10.986;2023-09-18T00:08:31;7.90;;;6.72;;
55350;SDS011;62194;49.480;10.986;2023-09-18T00:08:38;8.03;;;6.77;;
55350;SDS011;62194;49.480;10.986;2023-09-18T00:08:43;7.50;;;6.67;;
55350;SDS011;62194;49.480;10.986;2023-09-18T00:08:48;7.50;;;6.70;;
55350;SDS011;62194;49.480;10.986;2023-09-18T00:08:55;7.27;;;6.57;;
55350;SDS011;62194;49.480;10.986;2023-09-18T00:09:00;7.40;;;6.70;;
55350;SDS011;62194;49.480;10.986;2023-09-18T00:09:05;7.37;;;6.67;;
55350;SDS011;62194;49.480;10.986;2023-09-18T00:09:16;7.11;;;6.41;;
55350;SDS011;62194;49.480;10.986;2023-09-18T00:09:21;7.23;;;6.53;;
55350;SDS011;62194;49.480;10.986;2023-09-18T00:09:26;7.20;;;6.50;;
55350;SDS011;62194;49.480;10.986;2023-09-18T00:09:31;7.23;;;6.47;;
55350;SDS011;62194;49.480;10.986;2023-09-18T00:09:36;7.47;;;6.67;;
55350;SDS011;62194;49.480;10.986;2023-09-18T00:09:41;7.63;;;6.83;;
55350;SDS011;62194;49.480;10.986;2023-09-18T00:09:46;7.95;;;6.90;;
55350;SDS011;62194;49.480;10.986;2023-09-18T00:09:53;8.02;;;6.80;;
55350;SDS011;62194;49.480;10.986;2023-09-18T00:09:59;8.07;;;6.93;;
55350;SDS011;62194;49.480;10.986;2023-09-18T00:10:04;7.67;;;6.87;;
55350;SDS011;62194;49.480;10.986;2023-09-18T00:10:09;7.30;;;6.50;;
55350;SDS011;62194;49.480;10.986;2023-09-18T00:10:15;7.15;;;6.45;;
55350;SDS011;62194;49.480;10.986;2023-09-18T00:10:20;7.20;;;6.50;;
55350;SDS011;62194;49.480;10.986;2023-09-18T00:10:25;7.17;;;6.47;;
55350;SDS011;62194;49.480;10.986;2023-09-18T00:10:30;7.22;;;6.53;;
55350;SDS011;62194;49.480;10.986;2023-09-18T00:10:36;7.50;;;6.80;;
55350;SDS011;62194;49.480;10.986;2023-09-18T00:10:41;7.70;;;7.00;;
55350;SDS011;62194;49.480;10.986;2023-09-18T00:10:51;7.57;;;6.88;;
55350;SDS011;62194;49.480;10.986;2023-09-18T00:10:57;7.65;;;6.88;;
55350;SDS011;62194;49.480;10.986;2023-09-18T00:11:02;7.27;;;6.57;;
55350;SDS011;62194;49.480;10.986;2023-09-18T00:11:07;6.90;;;6.20;;
55350;SDS011;62194;49.480;10.986;2023-09-18T00:11:13;6.83;;;6.10;;
55350;SDS011;62194;49.480;10.986;2023-09-18T00:11:18;6.90;;;6.10;;
55350;SDS011;62194;49.480;10.986;2023-09-18T00:11:23;6.70;;;6.07;;
55350;SDS011;62194;49.480;10.986;2023-09-18T00:11:28;6.70;;;6.10;;
55350;SDS011;62194;49.480;10.986;2023-09-18T00:11:34;6.93;;;6.27;;
55350;SDS011;62194;49.480;10.986;2023-09-18T00:11:39;7.10;;;6.40;;
55350;SDS011;62194;49.480;10.986;2023-09-18T00:11:45;7.13;;;6.43;;
55350;SDS011;62194;49.480;10.986;2023-09-18T00:11:50;7.30;;;6.53;;
55350;SDS011;62194;49.480;10.986;2023-09-18T00:11:55;7.10;;;6.38;;
55350;SDS011;62194;49.480;10.986;2023-09-18T00:12:00;7.17;;;6.33;;
55350;SDS011;62194;49.480;10.986;2023-09-18T00:12:06;7.87;;;6.40;;
55350;SDS011;62194;49.480;10.986;2023-09-18T00:12:11;7.38;;;6.45;;
55350;SDS011;62194;49.480;10.986;2023-09-18T00:12:16;7.13;;;6.40;;
55350;SDS011;62194;49.480;10.986;2023-09-18T00:12:22;7.17;;;6.47;;
55350;SDS011;62194;49.480;10.986;2023-09-18T00:12:27;7.40;;;6.57;;
55350;SDS011;62194;49.480;10.986;2023-09-18T00:12:32;7.50;;;6.70;;
55350;SDS011;62194;49.480;10.986;2023-09-18T00:12:37;7.23;;;6.53;;
55350;SDS011;62194;49.480;10.986;2023-09-18T00:12:43;7.15;;;6.45;;
55350;SDS011;62194;49.480;10.986;2023-09-18T00:12:48;6.97;;;6.27;;
55350;SDS011;62194;49.480;10.986;2023-09-18T00:12:53;6.93;;;6.22;;
55350;SDS011;62194;49.480;10.986;2023-09-18T00:12:58;6.77;;;6.17;;
55350;SDS011;62194;49.480;10.986;2023-09-18T00:13:03;6.60;;;6.00;;
55350;SDS011;62194;49.480;10.986;2023-09-18T00:13:09;6.80;;;6.20;;
55350;SDS011;62194;49.480;10.986;2023-09-18T00:13:14;6.70;;;6.10;;
55350;SDS011;62194;49.480;10.986;2023-09-18T00:13:19;6.83;;;6.23;;
55350;SDS011;62194;49.480;10.986;2023-09-18T00:13:25;6.65;;;6.05;;
55350;SDS011;62194;49.480;10.986;2023-09-18T00:13:30;6.68;;;6.07;;
55350;SDS011;62194;49.480;10.986;2023-09-18T00:13:35;6.67;;;6.07;;
55350;SDS011;62194;49.480;10.986;2023-09-18T00:13:40;6.57;;;5.97;;
55350;SDS011;62194;49.480;10.986;2023-09-18T00:13:46;6.53;;;5.93;;
55350;SDS011;62194;49.480;10.986;2023-09-18T00:13:51;6.43;;;5.83;;
55350;SDS011;62194;49.480;10.986;2023-09-18T00:13:56;6.57;;;5.97;;
55350;SDS011;62194;49.480;10.986;2023-09-18T00:14:01;6.60;;;6.00;;
55350;SDS011;62194;49.480;10.986;2023-09-18T00:14:08;6.50;;;5.90;;
55350;SDS011;62194;49.480;10.986;2023-09-18T00:14:14;6.50;;;5.90;;
55350;SDS011;62194;49.480;10.986;2023-09-18T00:14:19;6.63;;;6.00;;
55350;SDS011;62194;49.480;10.986;2023-09-18T00:14:24;6.70;;;6.00;;
55350;SDS011;62194;49.480;10.986;2023-09-18T00:14:30;6.68;;;5.97;;
55350;SDS011;62194;49.480;10.986;2023-09-18T00:14:36;6.70;;;6.00;;
55350;SDS011;62194;49.480;10.986;2023-09-18T00:14:41;6.75;;;6.00;;
55350;SDS011;62194;49.480;10.986;2023-09-18T00:14:49;6.83;;;6.03;;
55350;SDS011;62194;49.480;10.986;2023-09-18T00:14:55;6.60;;;5.90;;
55350;SDS011;62194;49.480;10.986;2023-09-18T00:15:00;6.57;;;5.93;;
55350;SDS011;62194;49.480;10.986;2023-09-18T00:15:05;6.65;;;5.93;;
55350;SDS011;62194;49.480;10.986;2023-09-18T00:15:11;6.70;;;5.87;;
55350;SDS011;62194;49.480;10.986;2023-09-18T00:15:16;6.72;;;6.03;;
55350;SDS011;62194;49.480;10.986;2023-09-18T00:15:21;6.77;;;5.97;;
55350;SDS011;62194;49.480;10.986;2023-09-18T00:15:27;7.00;;;5.80;;
55350;SDS011;62194;49.480;10.986;2023-09-18T00:15:32;6.83;;;5.83;;
55350;SDS011;62194;49.480;10.986;2023-09-18T00:15:37;6.72;;;5.88;;
55350;SDS011;62194;49.480;10.986;2023-09-18T00:15:43;6.37;;;5.70;;
55350;SDS011;62194;49.480;10.986;2023-09-18T00:15:54;6.33;;;5.73;;
55350;SDS011;62194;49.480;10.986;2023-09-18T00:15:59;6.70;;;6.10;;
55350;SDS011;62194;49.480;10.986;2023-09-18T00:16:04;6.80;;;6.20;;
55350;SDS011;62194;49.480;10.986;2023-09-18T00:16:10;6.80;;;6.10;;
55350;SDS011;62194;49.480;10.986;2023-09-18T00:16:15;7.05;;;6.35;;
55350;SDS011;62194;49.480;10.986;2023-09-18T00:16:20;7.27;;;6.57;;
55350;SDS011;62194;49.480;10.986;2023-09-18T00:16:25;7.10;;;6.40;;
55350;SDS011;62194;49.480;10.986;2023-09-18T00:16:32;7.00;;;6.30;;
55350;SDS011;62194;49.480;10.986;2023-09-18T00:16:37;6.72;;;6.13;;
55350;SDS011;62194;49.480;10.986;2023-09-18T00:16:43;6.68;;;6.07;;
55350;SDS011;62194;49.480;10.986;2023-09-18T00:16:48;6.47;;;5.87;;
55350;SDS011;62194;49.480;10.986;2023-09-18T00:16:53;6.27;;;5.77;;
55350;SDS011;62194;49.480;10.986;2023-09-18T00:16:58;6.27;;;5.73;;
55350;SDS011;62194;49.480;10.986;2023-09-18T00:17:05;6.47;;;5.90;;
55350;SDS011;62194;49.480;10.986;2023-09-18T00:17:10;6.43;;;5.90;;
55350;SDS011;62194;49.480;10.986;2023-09-18T00:17:15;6.40;;;5.83;;
55350;SDS011;62194;49.480;10.986;2023-09-18T00:17:21;6.32;;;5.72;;
55350;SDS011;62194;49.480;10.986;2023-09-18T00:17:28;6.32;;;5.72;;
55350;SDS011;62194;49.480;10.986;2023-09-18T00:17:34;6.40;;;5.80;;
55350;SDS011;62194;49.480;10.986;2023-09-18T00:17:40;6.60;;;5.88;;
55350;SDS011;62194;49.480;10.986;2023-09-18T00:17:45;6.63;;;5.90;;
55350;SDS011;62194;49.480;10.986;2023-09-18T00:17:50;6.77;;;6.00;;
55350;SDS011;62194;49.480;10.986;2023-09-18T00:17:55;6.90;;;6.07;;
55350;SDS011;62194;49.480;10.986;2023-09-18T00:18:00;7.00;;;5.97;;
55350;SDS011;62194;49.480;10.986;2023-09-18T00:18:06;7.57;;;5.97;;
55350;SDS011;62194;49.480;10.986;2023-09-18T00:18:13;7.23;;;5.90;;
55350;SDS011;62194;49.480;10.986;2023-09-18T00:18:18;7.18;;;5.85;;
55350;SDS011;62194;49.480;10.986;2023-09-18T00:18:23;6.73;;;5.70;;
55350;SDS011;62194;49.480;10.986;2023-09-18T00:18:29;6.47;;;5.78;;
55350;SDS011;62194;49.480;10.986;2023-09-18T00:18:34;6.40;;;5.80;;
55350;SDS011;62194;49.480;10.986;2023-09-18T00:18:39;6.33;;;5.73;;
55350;SDS011;62194;49.480;10.986;2023-09-18T00:18:45;6.23;;;5.63;;
55350;SDS011;62194;49.480;10.986;2023-09-18T00:18:51;6.47;;;5.83;;
55350;SDS011;62194;49.480;10.986;2023-09-18T00:18:56;6.60;;;5.90;;
55350;SDS011;62194;49.480;10.986;2023-09-18T00:19:01;6.83;;;5.90;;
55350;SDS011;62194;49.480;10.986;2023-09-18T00:19:07;6.73;;;6.00;;
55350;SDS011;62194;49.480;10.986;2023-09-18T00:19:12;6.95;;;6.25;;
55350;SDS011;62194;49.480;10.986;2023-09-18T00:19:18;7.03;;;6.33;;
55350;SDS011;62194;49.480;10.986;2023-09-18T00:19:23;6.87;;;6.20;;
55350;SDS011;62194;49.480;10.986;2023-09-18T00:19:28;6.70;;;6.10;;
55350;SDS011;62194;49.480;10.986;2023-09-18T00:19:34;6.77;;;6.13;;
55350;SDS011;62194;49.480;10.986;2023-09-18T00:19:39;7.00;;;6.30;;
55350;SDS011;62194;49.480;10.986;2023-09-18T00:19:44;6.93;;;6.23;;
55350;SDS011;62194;49.480;10.986;2023-09-18T00:19:50;6.70;;;6.10;;
55350;SDS011;62194;49.480;10.986;2023-09-18T00:19:56;6.70;;;6.10;;
55350;SDS011;62194;49.480;10.986;2023-09-18T00:20:01;6.70;;;6.10;;
55350;SDS011;62194;49.480;10.986;2023-09-18T00:20:08;6.50;;;5.90;;
55350;SDS011;62194;49.480;10.986;2023-09-18T00:20:14;6.60;;;6.00;;
55350;SDS011;62194;49.480;10.986;2023-09-18T00:20:22;6.80;;;6.13;;
55350;SDS011;62194;49.480;10.986;2023-09-18T00:20:31;6.73;;;6.03;;
55350;SDS011;62194;49.480;10.986;2023-09-18T00:20:36;6.80;;;6.10;;
55350;SDS011;62194;49.480;10.986;2023-09-18T00:20:42;6.67;;;6.03;;
55350;SDS011;62194;49.480;10.986;2023-09-18T00:20:47;6.80;;;6.10;;
55350;SDS011;62194;49.480;10.986;2023-09-18T00:20:53;6.85;;;6.18;;
55350;SDS011;62194;49.480;10.986;2023-09-18T00:20:59;7.20;;;6.50;;
55350;SDS011;62194;49.480;10.986;2023-09-18T00:21:04;7.40;;;6.63;;
55350;SDS011;62194;49.480;10.986;2023-09-18T00:21:11;7.37;;;6.57;;
55350;SDS011;62194;49.480;10.986;2023-09-18T00:21:16;7.30;;;6.60;;
55350;SDS011;62194;49.480;10.986;2023-09-18T00:21:22;7.43;;;6.70;;
55350;SDS011;62194;49.480;10.986;2023-09-18T00:21:27;7.17;;;6.47;;
55350;SDS011;62194;49.480;10.986;2023-09-18T00:21:35;7.28;;;6.58;;
55350;SDS011;62194;49.480;10.986;2023-09-18T00:21:40;7.50;;;6.80;;
55350;SDS011;62194;49.480;10.986;2023-09-18T00:21:45;7.50;;;6.80;;
55350;SDS011;62194;49.480;10.986;2023-09-18T00:21:51;7.47;;;6.77;;
55350;SDS011;62194;49.480;10.986;2023-09-18T00:21:57;7.33;;;6.63;;
55350;SDS011;62194;49.480;10.986;2023-09-18T00:22:05;6.87;;;6.17;;
55350;SDS011;62194;49.480;10.986;2023-09-18T00:22:11;6.63;;;5.93;;
55350;SDS011;62194;49.480;10.986;2023-09-18T00:22:16;6.53;;;5.82;;
55350;SDS011;62194;49.480;10.986;2023-09-18T00:22:22;6.47;;;5.83;;
55350;SDS011;62194;49.480;10.986;2023-09-18T00:22:29;7.30;;;6.37;;
55350;SDS011;62194;49.480;10.986;2023-09-18T00:22:34;7.53;;;6.68;;
55350;SDS011;62194;49.480;10.986;2023-09-18T00:22:39;7.90;;;6.97;;
55350;SDS011;62194;49.480;10.986;2023-09-18T00:22:44;7.80;;;7.00;;
55350;SDS011;62194;49.480;10.986;2023-09-18T00:22:50;7.73;;;6.93;;
55350;SDS011;62194;49.480;10.986;2023-09-18T00:22:55;7.47;;;6.73;;
55350;SDS011;62194;49.480;10.986;2023-09-18T00:23:00;7.00;;;6.30;;
55350;SDS011;62194;49.480;10.986;2023-09-18T00:23:05;6.57;;;5.97;;
55350;SDS011;62194;49.480;10.986;2023-09-18T00:23:10;6.67;;;6.00;;
55350;SDS011;62194;49.480;10.986;2023-09-18T00:23:16;6.73;;;6.10;;
55350;SDS011;62194;49.480;10.986;2023-09-18T00:23:21;6.97;;;6.27;;
55350;SDS011;62194;49.480;10.986;2023-09-18T00:23:26;7.20;;;6.37;;
55350;SDS011;62194;49.480;10.986;2023-09-18T00:23:31;7.57;;;6.50;;
55350;SDS011;62194;49.480;10.986;2023-09-18T00:23:37;7.40;;;6.53;;
55350;SDS011;62194;49.480;10.986;2023-09-18T00:23:43;7.13;;;6.40;;
55350;SDS011;62194;49.480;10.986;2023-09-18T00:23:48;7.33;;;6.30;;
55350;SDS011;62194;49.480;10.986;2023-09-18T00:23:53;6.95;;;6.20;;
55350;SDS011;62194;49.480;10.986;2023-09-18T00:23:58;6.97;;;6.27;;
55350;SDS011;62194;49.480;10.986;2023-09-18T00:24:03;7.23;;;6.47;;
55350;SDS011;62194;49.480;10.986;2023-09-18T00:24:09;7.57;;;6.47;;
55350;SDS011;62194;49.480;10.986;2023-09-18T00:24:14;7.67;;;6.53;;
55350;SDS011;62194;49.480;10.986;2023-09-18T00:24:19;7.63;;;6.57;;
55350;SDS011;62194;49.480;10.986;2023-09-18T00:24:24;7.70;;;6.55;;
55350;SDS011;62194;49.480;10.986;2023-09-18T00:24:30;7.13;;;6.40;;
55350;SDS011;62194;49.480;10.986;2023-09-18T00:24:35;7.00;;;6.30;;
55350;SDS011;62194;49.480;10.986;2023-09-18T00:24:40;7.10;;;6.40;;
55350;SDS011;62194;49.480;10.986;2023-09-18T00:24:45;7.07;;;6.37;;
55350;SDS011;62194;49.480;10.986;2023-09-18T00:24:50;6.97;;;6.30;;
55350;SDS011;62194;49.480;10.986;2023-09-18T00:24:55;7.17;;;6.47;;
55350;SDS011;62194;49.480;10.986;2023-09-18T00:25:01;7.00;;;6.30;;
55350;SDS011;62194;49.480;10.986;2023-09-18T00:25:09;6.87;;;6.17;;
55350;SDS011;62194;49.480;10.986;2023-09-18T00:25:14;6.67;;;6.00;;
55350;SDS011;62194;49.480;10.986;2023-09-18T00:25:20;6.80;;;6.15;;
55350;SDS011;62194;49.480;10.986;2023-09-18T00:25:25;6.73;;;6.13;;
55350;SDS011;62194;49.480;10.986;2023-09-18T00:25:30;6.97;;;6.37;;
55350;SDS011;62194;49.480;10.986;2023-09-18T00:25:36;7.15;;;6.43;;
55350;SDS011;62194;49.480;10.986;2023-09-18T00:25:47;8.17;;;6.50;;
55350;SDS011;62194;49.480;10.986;2023-09-18T00:25:52;8.13;;;6.37;;
55350;SDS011;62194;49.480;10.986;2023-09-18T00:25:57;8.17;;;6.33;;
55350;SDS011;62194;49.480;10.986;2023-09-18T00:26:02;8.07;;;6.37;;
55350;SDS011;62194;49.480;10.986;2023-09-18T00:26:08;7.40;;;6.33;;
55350;SDS011;62194;49.480;10.986;2023-09-18T00:26:13;7.00;;;6.30;;
55350;SDS011;62194;49.480;10.986;2023-09-18T00:26:18;6.83;;;6.17;;
55350;SDS011;62194;49.480;10.986;2023-09-18T00:26:24;6.97;;;6.27;;
55350;SDS011;62194;49.480;10.986;2023-09-18T00:26:29;7.13;;;6.43;;
55350;SDS011;62194;49.480;10.986;2023-09-18T00:26:34;7.13;;;6.43;;
55350;SDS011;62194;49.480;10.986;2023-09-18T00:26:39;7.40;;;6.60;;
55350;SDS011;62194;49.480;10.986;2023-09-18T00:26:45;7.60;;;6.70;;
55350;SDS011;62194;49.480;10.986;2023-09-18T00:26:52;7.70;;;6.80;;
55350;SDS011;62194;49.480;10.986;2023-09-18T00:26:58;7.55;;;6.75;;
55350;SDS011;62194;49.480;10.986;2023-09-18T00:27:03;7.43;;;6.70;;
55350;SDS011;62194;49.480;10.986;2023-09-18T00:27:09;7.35;;;6.60;;
55350;SDS011;62194;49.480;10.986;2023-09-18T00:27:16;7.57;;;6.60;;
55350;SDS011;62194;49.480;10.986;2023-09-18T00:27:22;7.43;;;6.63;;
55350;SDS011;62194;49.480;10.986;2023-09-18T00:27:27;7.27;;;6.43;;
55350;SDS011;62194;49.480;10.986;2023-09-18T00:27:32;7.07;;;6.30;;
55350;SDS011;62194;49.480;10.986;2023-09-18T00:27:37;7.03;;;6.30;;
55350;SDS011;62194;49.480;10.986;2023-09-18T00:27:42;7.00;;;6.30;;
55350;SDS011;62194;49.480;10.986;2023-09-18T00:27:48;6.82;;;6.20;;
55350;SDS011;62194;49.480;10.986;2023-09-18T00:27:54;6.65;;;5.95;;
55350;SDS011;62194;49.480;10.986;2023-09-18T00:27:59;8.07;;;6.10;;
55350;SDS011;62194;49.480;10.986;2023-09-18T00:28:04;8.30;;;5.97;;
55350;SDS011;62194;49.480;10.986;2023-09-18T00:28:09;8.33;;;5.97;;
55350;SDS011;62194;49.480;10.986;2023-09-18T00:28:15;8.32;;;6.00;;
55350;SDS011;62194;49.480;10.986;2023-09-18T00:28:20;8.33;;;6.17;;
55350;SDS011;62194;49.480;10.986;2023-09-18T00:28:25;8.40;;;6.20;;
55350;SDS011;62194;49.480;10.986;2023-09-18T00:28:30;6.87;;;6.17;;
55350;SDS011;62194;49.480;10.986;2023-09-18T00:28:35;7.00;;;6.30;;
55350;SDS011;62194;49.480;10.986;2023-09-18T00:28:40;7.03;;;6.32;;
55350;SDS011;62194;49.480;10.986;2023-09-18T00:28:46;6.90;;;6.20;;
55350;SDS011;62194;49.480;10.986;2023-09-18T00:28:51;7.37;;;6.13;;
55350;SDS011;62194;49.480;10.986;2023-09-18T00:28:56;7.27;;;6.27;;
55350;SDS011;62194;49.480;10.986;2023-09-18T00:29:01;7.47;;;6.37;;
55350;SDS011;62194;49.480;10.986;2023-09-18T00:29:06;7.20;;;6.30;;
55350;SDS011;62194;49.480;10.986;2023-09-18T00:29:11;6.97;;;6.13;;
55350;SDS011;62194;49.480;10.986;2023-09-18T00:29:16;6.78;;;6.07;;
55350;SDS011;62194;49.480;10.986;2023-09-18T00:29:22;6.67;;;6.07;;
55350;SDS011;62194;49.480;10.986;2023-09-18T00:29:27;6.70;;;6.03;;
55350;SDS011;62194;49.480;10.986;2023-09-18T00:29:32;6.60;;;6.00;;
55350;SDS011;62194;49.480;10.986;2023-09-18T00:29:37;6.60;;;6.00;;
55350;SDS011;62194;49.480;10.986;2023-09-18T00:29:42;6.80;;;6.10;;
55350;SDS011;62194;49.480;10.986;2023-09-18T00:29:47;6.75;;;6.00;;
55350;SDS011;62194;49.480;10.986;2023-09-18T00:29:53;7.07;;;6.00;;
55350;SDS011;62194;49.480;10.986;2023-09-18T00:29:58;6.83;;;6.00;;
55350;SDS011;62194;49.480;10.986;2023-09-18T00:30:03;6.80;;;6.07;;
55350;SDS011;62194;49.480;10.986;2023-09-18T00:30:09;6.85;;;6.10;;
55350;SDS011;62194;49.480;10.986;2023-09-18T00:30:14;7.03;;;6.33;;
55350;SDS011;62194;49.480;10.986;2023-09-18T00:30:19;7.07;;;6.37;;
55350;SDS011;62194;49.480;10.986;2023-09-18T00:30:24;6.80;;;6.20;;
55350;SDS011;62194;49.480;10.986;2023-09-18T00:30:29;6.80;;;6.10;;
55350;SDS011;62194;49.480;10.986;2023-09-18T00:30:37;6.80;;;6.10;;
55350;SDS011;62194;49.480;10.986;2023-09-18T00:30:42;6.88;;;6.18;;
55350;SDS011;62194;49.480;10.986;2023-09-18T00:30:51;6.83;;;6.13;;
55350;SDS011;62194;49.480;10.986;2023-09-18T00:30:56;6.95;;;6.25;;
55350;SDS011;62194;49.480;10.986;2023-09-18T00:31:02;7.03;;;6.32;;
55350;SDS011;62194;49.480;10.986;2023-09-18T00:31:07;6.97;;;6.27;;
55350;SDS011;62194;49.480;10.986;2023-09-18T00:31:13;6.90;;;6.20;;
55350;SDS011;62194;49.480;10.986;2023-09-18T00:31:18;6.93;;;6.20;;
55350;SDS011;62194;49.480;10.986;2023-09-18T00:31:24;7.03;;;6.28;;
55350;SDS011;62194;49.480;10.986;2023-09-18T00:31:29;6.93;;;6.23;;
55350;SDS011;62194;49.480;10.986;2023-09-18T00:31:34;6.80;;;6.10;;
55350;SDS011;62194;49.480;10.986;2023-09-18T00:31:39;6.90;;;6.20;;
55350;SDS011;62194;49.480;10.986;2023-09-18T00:31:44;6.70;;;6.10;;
55350;SDS011;62194;49.480;10.986;2023-09-18T00:31:50;6.60;;;6.00;;
55350;SDS011;62194;49.480;10.986;2023-09-18T00:31:55;6.57;;;5.97;;
55350;SDS011;62194;49.480;10.986;2023-09-18T00:32:00;6.50;;;5.90;;
55350;SDS011;62194;49.480;10.986;2023-09-18T00:32:05;6.43;;;5.83;;
55350;SDS011;62194;49.480;10.986;2023-09-18T00:32:11;6.38;;;5.80;;
55350;SDS011;62194;49.480;10.986;2023-09-18T00:32:16;6.30;;;5.70;;
55350;SDS011;62194;49.480;10.986;2023-09-18T00:32:21;6.40;;;5.80;;
55350;SDS011;62194;49.480;10.986;2023-09-18T00:32:27;6.60;;;5.97;;
55350;SDS011;62194;49.480;10.986;2023-09-18T00:32:32;6.83;;;6.13;;
55350;SDS011;62194;49.480;10.986;2023-09-18T00:32:38;6.80;;;6.10;;
55350;SDS011;62194;49.480;10.986;2023-09-18T00:32:43;7.00;;;6.30;;
55350;SDS011;62194;49.480;10.986;2023-09-18T00:32:48;7.00;;;6.30;;
55350;SDS011;62194;49.480;10.986;2023-09-18T00:32:54;6.87;;;6.17;;
55350;SDS011;62194;49.480;10.986;2023-09-18T00:33:00;6.60;;;6.00;;
55350;SDS011;62194;49.480;10.986;2023-09-18T00:33:05;6.30;;;5.70;;